sensor_id;sensor_type;location;lat;lon;timestamp;temperature;humidity
59162;DHT22;44942;48.936;8.260;2023-12-28T14:06:04;19.40;60.20
59162;DHT22;44942;48.936;8.260;2023-12-28T14:11:05;19.70;61.60
59162;DHT22;44942;48.936;8.260;2023-12-28T14:16:06;20.10;60.90
59162;DHT22;44942;48.936;8.260;2023-12-28T14:21:06;20.40;60.30
59162;DHT22;44942;48.936;8.260;2023-12-28T14:26:12;20.60;59.80
59162;DHT22;44942;48.936;8.260;2023-12-28T14:31:16;20.70;59.60
59162;DHT22;44942;48.936;8.260;2023-12-28T14:41:26;20.90;58.90
59162;DHT22;44942;48.936;8.260;2023-12-28T14:46:30;20.90;58.70
59162;DHT22;44942;48.936;8.260;2023-12-28T14:51:31;21.00;58.40
59162;DHT22;44942;48.936;8.260;2023-12-28T14:56:32;21.00;58.30
59162;DHT22;44942;48.936;8.260;2023-12-28T15:01:32;21.00;58.20
59162;DHT22;44942;48.936;8.260;2023-12-28T15:06:33;21.10;58.00
59162;DHT22;44942;48.936;8.260;2023-12-28T15:11:34;21.10;57.90
59162;DHT22;44942;48.936;8.260;2023-12-28T15:16:34;21.10;57.80
59162;DHT22;44942;48.936;8.260;2023-12-28T15:21:38;21.10;57.70
59162;DHT22;44942;48.936;8.260;2023-12-28T15:26:39;21.10;57.90
59162;DHT22;44942;48.936;8.260;2023-12-28T15:31:39;21.10;57.70
59162;DHT22;44942;48.936;8.260;2023-12-28T15:36:40;21.10;57.70
59162;DHT22;44942;48.936;8.260;2023-12-28T15:41:41;21.10;57.60
59162;DHT22;44942;48.936;8.260;2023-12-28T15:46:41;21.10;57.60
59162;DHT22;44942;48.936;8.260;2023-12-28T15:51:42;21.10;57.60
59162;DHT22;44942;48.936;8.260;2023-12-28T15:56:49;21.10;57.80
59162;DHT22;44942;48.936;8.260;2023-12-28T16:01:50;21.10;57.50
59162;DHT22;44942;48.936;8.260;2023-12-28T16:06:50;21.10;57.50
59162;DHT22;44942;48.936;8.260;2023-12-28T16:11:51;21.10;57.50
59162;DHT22;44942;48.936;8.260;2023-12-28T16:16:52;21.20;57.60
59162;DHT22;44942;48.936;8.260;2023-12-28T16:21:53;21.20;57.60
59162;DHT22;44942;48.936;8.260;2023-12-28T16:26:54;21.20;57.60
59162;DHT22;44942;48.936;8.260;2023-12-28T16:31:57;21.20;57.60
59162;DHT22;44942;48.936;8.260;2023-12-28T16:37:01;21.20;57.60
59162;DHT22;44942;48.936;8.260;2023-12-28T16:42:04;21.20;58.30
59162;DHT22;44942;48.936;8.260;2023-12-28T16:47:05;21.20;57.60
59162;DHT22;44942;48.936;8.260;2023-12-28T16:52:06;21.20;57.60
59162;DHT22;44942;48.936;8.260;2023-12-28T16:57:07;21.20;57.60
59162;DHT22;44942;48.936;8.260;2023-12-28T17:02:08;21.20;57.60
59162;DHT22;44942;48.936;8.260;2023-12-28T17:07:08;21.30;57.70
59162;DHT22;44942;48.936;8.260;2023-12-28T17:12:39;21.20;57.60
59162;DHT22;44942;48.936;8.260;2023-12-28T17:17:44;21.20;57.70
59162;DHT22;44942;48.936;8.260;2023-12-28T17:22:46;21.20;57.70
59162;DHT22;44942;48.936;8.260;2023-12-28T17:27:55;21.30;57.70
59162;DHT22;44942;48.936;8.260;2023-12-28T17:32:59;21.30;57.70
59162;DHT22;44942;48.936;8.260;2023-12-28T17:38:02;21.20;57.70
59162;DHT22;44942;48.936;8.260;2023-12-28T17:43:28;21.30;57.70
59162;DHT22;44942;48.936;8.260;2023-12-28T17:48:36;21.30;57.70
59162;DHT22;44942;48.936;8.260;2023-12-28T17:53:38;21.30;57.70
59162;DHT22;44942;48.936;8.260;2023-12-28T17:58:39;21.30;57.70
59162;DHT22;44942;48.936;8.260;2023-12-28T18:03:41;21.30;57.80
59162;DHT22;44942;48.936;8.260;2023-12-28T18:08:41;21.30;57.80
59162;DHT22;44942;48.936;8.260;2023-12-28T18:13:42;21.20;57.80
59162;DHT22;44942;48.936;8.260;2023-12-28T18:18:43;21.30;57.80
59162;DHT22;44942;48.936;8.260;2023-12-28T18:23:43;21.30;57.80
59162;DHT22;44942;48.936;8.260;2023-12-28T18:28:45;21.30;57.80
59162;DHT22;44942;48.936;8.260;2023-12-28T18:33:45;21.30;57.80
59162;DHT22;44942;48.936;8.260;2023-12-28T18:38:49;21.30;57.80
59162;DHT22;44942;48.936;8.260;2023-12-28T18:43:49;21.30;57.80
59162;DHT22;44942;48.936;8.260;2023-12-28T18:48:53;21.30;57.80
59162;DHT22;44942;48.936;8.260;2023-12-28T18:53:53;21.30;57.80
59162;DHT22;44942;48.936;8.260;2023-12-28T18:58:57;21.30;57.80
59162;DHT22;44942;48.936;8.260;2023-12-28T19:04:01;21.30;57.80
59162;DHT22;44942;48.936;8.260;2023-12-28T19:09:02;21.30;57.80
59162;DHT22;44942;48.936;8.260;2023-12-28T19:14:05;21.30;57.80
59162;DHT22;44942;48.936;8.260;2023-12-28T19:19:08;21.30;57.80
59162;DHT22;44942;48.936;8.260;2023-12-28T19:24:09;21.30;57.80
59162;DHT22;44942;48.936;8.260;2023-12-28T19:29:09;21.30;57.80
59162;DHT22;44942;48.936;8.260;2023-12-28T19:34:10;21.30;57.80
59162;DHT22;44942;48.936;8.260;2023-12-28T19:39:11;21.30;57.90
59162;DHT22;44942;48.936;8.260;2023-12-28T19:44:11;21.30;57.90
59162;DHT22;44942;48.936;8.260;2023-12-28T19:49:13;21.40;58.00
59162;DHT22;44942;48.936;8.260;2023-12-28T19:54:14;21.40;58.00
59162;DHT22;44942;48.936;8.260;2023-12-28T19:59:16;21.40;58.00
59162;DHT22;44942;48.936;8.260;2023-12-28T20:04:16;21.40;58.10
59162;DHT22;44942;48.936;8.260;2023-12-28T20:09:17;21.40;58.30
59162;DHT22;44942;48.936;8.260;2023-12-28T20:14:18;21.50;58.20
59162;DHT22;44942;48.936;8.260;2023-12-28T20:19:19;21.40;58.20
59162;DHT22;44942;48.936;8.260;2023-12-28T20:24:20;21.30;58.10
59162;DHT22;44942;48.936;8.260;2023-12-28T20:29:24;21.30;58.20
59162;DHT22;44942;48.936;8.260;2023-12-28T20:34:24;21.40;58.20
59162;DHT22;44942;48.936;8.260;2023-12-28T20:39:25;21.40;58.30
59162;DHT22;44942;48.936;8.260;2023-12-28T20:44:25;21.40;58.40
59162;DHT22;44942;48.936;8.260;2023-12-28T20:49:26;21.40;58.50
59162;DHT22;44942;48.936;8.260;2023-12-28T20:54:26;21.50;58.60
59162;DHT22;44942;48.936;8.260;2023-12-28T20:59:27;21.50;58.60
59162;DHT22;44942;48.936;8.260;2023-12-28T21:04:28;21.50;58.60
59162;DHT22;44942;48.936;8.260;2023-12-28T21:09:28;21.50;58.50
59162;DHT22;44942;48.936;8.260;2023-12-28T21:14:33;21.50;58.60
59162;DHT22;44942;48.936;8.260;2023-12-28T21:19:39;21.50;58.50
59162;DHT22;44942;48.936;8.260;2023-12-28T21:24:40;21.30;58.20
59162;DHT22;44942;48.936;8.260;2023-12-28T21:29:41;21.30;58.00
59162;DHT22;44942;48.936;8.260;2023-12-28T21:34:45;21.40;57.80
59162;DHT22;44942;48.936;8.260;2023-12-28T21:39:45;21.40;57.80
59162;DHT22;44942;48.936;8.260;2023-12-28T21:44:46;21.40;57.80
59162;DHT22;44942;48.936;8.260;2023-12-28T21:49:46;21.40;57.90
59162;DHT22;44942;48.936;8.260;2023-12-28T21:54:50;21.50;58.00
59162;DHT22;44942;48.936;8.260;2023-12-28T21:59:51;21.50;58.00
59162;DHT22;44942;48.936;8.260;2023-12-28T22:04:52;21.50;57.90
59162;DHT22;44942;48.936;8.260;2023-12-28T22:09:52;21.50;58.00
59162;DHT22;44942;48.936;8.260;2023-12-28T22:14:53;21.50;58.00
59162;DHT22;44942;48.936;8.260;2023-12-28T22:19:53;21.50;58.00
59162;DHT22;44942;48.936;8.260;2023-12-28T22:24:54;21.30;57.70
59162;DHT22;44942;48.936;8.260;2023-12-28T22:29:57;21.30;57.50
59162;DHT22;44942;48.936;8.260;2023-12-28T22:34:58;21.30;57.30
59162;DHT22;44942;48.936;8.260;2023-12-28T22:40:01;21.40;57.40
59162;DHT22;44942;48.936;8.260;2023-12-28T22:45:02;21.40;57.40
59162;DHT22;44942;48.936;8.260;2023-12-28T22:50:03;21.40;57.50
59162;DHT22;44942;48.936;8.260;2023-12-28T22:55:04;21.50;57.60
59162;DHT22;44942;48.936;8.260;2023-12-28T23:00:06;21.40;57.60
59162;DHT22;44942;48.936;8.260;2023-12-28T23:05:14;21.50;57.70
59162;DHT22;44942;48.936;8.260;2023-12-28T23:10:14;21.40;57.70
59162;DHT22;44942;48.936;8.260;2023-12-28T23:15:19;21.40;57.80
59162;DHT22;44942;48.936;8.260;2023-12-28T23:20:19;21.40;57.80
59162;DHT22;44942;48.936;8.260;2023-12-28T23:25:23;21.20;57.50
59162;DHT22;44942;48.936;8.260;2023-12-28T23:30:24;21.20;57.30
59162;DHT22;44942;48.936;8.260;2023-12-28T23:35:24;21.30;57.20
59162;DHT22;44942;48.936;8.260;2023-12-28T23:40:25;21.40;57.30
59162;DHT22;44942;48.936;8.260;2023-12-28T23:45:25;21.40;57.40
59162;DHT22;44942;48.936;8.260;2023-12-28T23:50:26;21.40;57.60
59162;DHT22;44942;48.936;8.260;2023-12-28T23:55:29;21.40;57.60
